Airfield :
LOGIN :

Register | Disclaimer

   EN    FR    IT 

 










Legend :    VFR   Marginal VFR   IFR   Intensive IFR   Very Intensive IFR
Visi :
Ceiling :
>= 8 km
>= 3000ft
5 to 8 km
1000 to 3000 ft
1500m to 5 km
500 to 1000 ft
800 to 1500m
200 to 500 ft
< 800m
< 200 ft
Symbols :   Thunderstorms  Fog  Heavy snow  Heavy precipitations  Wind > 20 kt
SIGMETs :     Misc.  Thunderstorms  Icing  Turbulence  Mountain Waves  Volcanic Ashes






- Airport Elevation : 640 ft
- IATA code : AOC


EDAC - Altenburg-Nobitz

CURRENT METAR :
  • 250420Z AUTO VRB02KT 9999 // NCD 11/11 Q1017

EXPIRED METARs :
  • 250350Z AUTO 18003KT 140V230 9999 // NCD 11/11 Q1017
  • 250320Z AUTO VRB02KT 9999 // FEW001/// 09/09 Q1017
  • 250250Z AUTO 15002KT 7000 // FEW001/// 09/09 Q1017
  • 250220Z AUTO 20003KT 150V220 0550 R22/1100D // BKN001/// BKN032/// 10/10 Q1017
  • 250150Z AUTO VRB01KT 1500 // SCT002/// 09/09 Q1017
  • 250120Z AUTO VRB02KT 6000 // FEW002/// SCT220/// 10/10 Q1017
  • 250050Z AUTO 00000KT 5000 // FEW003/// BKN210/// 09/09 Q1017
  • 250020Z AUTO VRB01KT 1100 R22/1900D // FEW001/// BKN200/// BKN230/// 10/10 Q1017

Expired Forecast.



MET'MAP, your aeronautical weather chart ! - Copyright ORBIFLY December 2007 - Disclaimer

ORBIFLY MET'MAP TEAM :

Programming & Development : Alexandra Zaïnal
Original concept : Baudouin d'Aumeries
Technical & hardware support : Manuel Goepfert
Assistance : Marc-Olivier Méhu




SOURCES & CREDITS :

   NOAA